Time;durP1;ratioP1;P1;durP2;ratioP2;P2;SDS_P1;SDS_P2;PMS_P1;PMS_P2;Temp;Humidity;BMP_temperature;BMP_pressure;BME280_temperature;BME280_humidity;BME280_pressure;Samples;Min_cycle;Max_cycle;Signal;HPM_P1;HPM_P2
2023/07/30 00:01:29;;;;;;;;;;;;;;;;;;6180487;23;19915;-86
2023/07/30 00:03:55;;;;;;;;;;;;;;;;;;6208574;23;20046;-86
2023/07/30 00:06:21;;;;;;;;;;;;;;;;;;6181384;23;19965;-87
2023/07/30 00:08:47;;;;;;;;;;;;;;;;;;6183136;23;20373;-86
2023/07/30 00:11:13;;;;;;;;;;;;;;;;;;6180206;23;20006;-87
2023/07/30 00:13:39;;;;;;;;;;;;;;;;;;6182245;23;19919;-87
2023/07/30 00:16:08;;;;;;;;;;;;;;;;;;6182862;23;20333;-86
2023/07/30 00:18:34;;;;;;;;;;;;;;;;;;6208485;23;20345;-87
2023/07/30 00:21:00;;;;;;;;;;;;;;;;;;6208410;23;19919;-86
2023/07/30 00:23:26;;;;;;;;;;;;;;;;;;6180954;23;19930;-86
2023/07/30 00:25:52;;;;;;;;;;;;;;;;;;6181835;23;19927;-86
2023/07/30 00:28:18;;;;;;;;;;;;;;;;;;6179942;23;20007;-87
2023/07/30 00:30:44;;;;;;;;;;;;;;;;;;6183009;23;19924;-86
2023/07/30 00:33:10;;;;;;;;;;;;;;;;;;6180987;23;19981;-86
2023/07/30 00:35:36;;;;;;;;;;;;;;;;;;6181961;23;19923;-87
2023/07/30 00:38:02;;;;;;;;;;;;;;;;;;6181758;23;19926;-86
2023/07/30 00:40:31;;;;;;;;;;;;;;;;;;6179164;23;19919;-87
2023/07/30 00:42:57;;;;;;;;;;;;;;;;;;6183080;23;19953;-87
2023/07/30 00:45:23;;;;;;;;;;;;;;;;;;6180910;23;19926;-86
2023/07/30 00:47:49;;;;;;;;;;;;;;;;;;6183199;23;20602;-86
2023/07/30 00:50:15;;;;;;;;;;;;;;;;;;6180073;23;20123;-87
2023/07/30 00:52:41;;;;;;;;;;;;;;;;;;6184270;23;19915;-86
2023/07/30 00:55:07;;;;;;;;;;;;;;;;;;6182217;23;20252;-86
2023/07/30 00:57:33;;;;;;;;;;;;;;;;;;6181145;23;19926;-87
2023/07/30 00:59:59;;;;;;;;;;;;;;;;;;6181177;23;19923;-86
2023/07/30 01:02:25;;;;;;;;;;;;;;;;;;6232135;23;19924;-86
2023/07/30 01:04:51;;;;;;;;;;;;;;;;;;6182897;23;19919;-86
2023/07/30 01:07:17;;;;;;;;;;;;;;;;;;6179876;23;19990;-86
2023/07/30 01:09:43;;;;;;;;;;;;;;;;;;6182322;23;20017;-86
2023/07/30 01:12:09;;;;;;;;;;;;;;;;;;6205555;23;19963;-86
2023/07/30 01:14:37;;;;;;;;;;;;;;;;;;6183115;23;20229;-86
2023/07/30 01:17:03;;;;;;;;;;;;;;;;;;6182146;23;20396;-87
2023/07/30 01:19:29;;;;;;;;;;;;;;;;;;6180815;23;19920;-86
2023/07/30 01:21:56;;;;;;;;;;;;;;;;;;6206633;23;19926;-86
2023/07/30 01:24:22;;;;;;;;;;;;;;;;;;6204139;23;19962;-86
2023/07/30 01:26:48;;;;;;;;;;;;;;;;;;6205362;23;20639;-86
2023/07/30 01:29:14;;;;;;;;;;;;;;;;;;6180241;23;19916;-86
2023/07/30 01:31:41;;;;;;;;;;;;;;;;;;6206836;23;19998;-86
2023/07/30 01:34:07;;;;;;;;;;;;;;;;;;6203594;23;19973;-86
2023/07/30 01:36:33;;;;;;;;;;;;;;;;;;6180991;23;19920;-87
2023/07/30 01:38:59;;;;;;;;;;;;;;;;;;6205023;23;20237;-86
2023/07/30 01:41:25;;;;;;;;;;;;;;;;;;6204485;23;19930;-86
2023/07/30 01:43:51;;;;;;;;;;;;;;;;;;6232201;23;19915;-86
2023/07/30 01:46:17;;;;;;;;;;;;;;;;;;6179197;23;19991;-86
2023/07/30 01:48:43;;;;;;;;;;;;;;;;;;6181243;23;19998;-86
2023/07/30 01:51:09;;;;;;;;;;;;;;;;;;6179501;23;19930;-86
2023/07/30 01:53:35;;;;;;;;;;;;;;;;;;6206521;23;19923;-87
2023/07/30 01:56:01;;;;;;;;;;;;;;;;;;6181440;23;19920;-86
2023/07/30 01:58:27;;;;;;;;;;;;;;;;;;6179503;23;19926;-86
2023/07/30 02:00:53;;;;;;;;;;;;;;;;;;6181344;23;19919;-87
2023/07/30 02:03:19;;;;;;;;;;;;;;;;;;6178146;23;19922;-86
2023/07/30 02:05:45;;;;;;;;;;;;;;;;;;6180308;23;19924;-86
2023/07/30 02:08:13;;;;;;;;;;;;;;;;;;6177509;23;19920;-85
2023/07/30 02:10:39;;;;;;;;;;;;;;;;;;6178892;23;19920;-86
2023/07/30 02:13:05;;;;;;;;;;;;;;;;;;6180380;23;20577;-86
2023/07/30 02:15:31;;;;;;;;;;;;;;;;;;6178913;23;19999;-86
2023/07/30 02:17:57;;;;;;;;;;;;;;;;;;6181073;23;19919;-86
2023/07/30 02:20:23;;;;;;;;;;;;;;;;;;6178633;23;19919;-86
2023/07/30 02:22:49;;;;;;;;;;;;;;;;;;6178728;23;20018;-87
2023/07/30 02:25:15;;;;;;;;;;;;;;;;;;6177842;23;19926;-86
2023/07/30 02:27:40;;;;;;;;;;;;;;;;;;6204044;23;19927;-86
2023/07/30 02:30:07;;;;;;;;;;;;;;;;;;6180324;23;19923;-86
2023/07/30 02:32:33;;;;;;;;;;;;;;;;;;6180721;23;19994;-86
2023/07/30 02:34:58;;;;;;;;;;;;;;;;;;6204936;23;19958;-86
2023/07/30 02:37:24;;;;;;;;;;;;;;;;;;6178334;23;19919;-86
2023/07/30 02:39:50;;;;;;;;;;;;;;;;;;6180840;23;20389;-85
2023/07/30 02:42:16;;;;;;;;;;;;;;;;;;6176834;23;19919;-86
2023/07/30 02:44:42;;;;;;;;;;;;;;;;;;6179513;23;19919;-86
2023/07/30 02:47:11;;;;;;;;;;;;;;;;;;6178445;23;19922;-86
2023/07/30 02:49:37;;;;;;;;;;;;;;;;;;6205091;23;19990;-86
2023/07/30 02:52:03;;;;;;;;;;;;;;;;;;6179090;23;19927;-86
2023/07/30 02:54:29;;;;;;;;;;;;;;;;;;6175995;23;19920;-86
2023/07/30 02:56:55;;;;;;;;;;;;;;;;;;6181662;23;19924;-86
2023/07/30 02:59:21;;;;;;;;;;;;;;;;;;6202321;23;19985;-86
2023/07/30 03:01:47;;;;;;;;;;;;;;;;;;6179438;23;19925;-86
2023/07/30 03:04:13;;;;;;;;;;;;;;;;;;6178696;23;19919;-86
2023/07/30 03:06:39;;;;;;;;;;;;;;;;;;6179934;23;20741;-86
2023/07/30 03:09:05;;;;;;;;;;;;;;;;;;6203984;23;20006;-86
2023/07/30 03:11:31;;;;;;;;;;;;;;;;;;6202070;23;19972;-86
2023/07/30 03:13:57;;;;;;;;;;;;;;;;;;6205416;23;20287;-86
2023/07/30 03:16:23;;;;;;;;;;;;;;;;;;6202847;23;19973;-86
2023/07/30 03:18:49;;;;;;;;;;;;;;;;;;6179950;23;19930;-86
2023/07/30 03:21:15;;;;;;;;;;;;;;;;;;6178604;23;19923;-86
2023/07/30 03:23:44;;;;;;;;;;;;;;;;;;6182407;23;20728;-86
2023/07/30 03:26:10;;;;;;;;;;;;;;;;;;6179748;23;19916;-86
2023/07/30 03:28:35;;;;;;;;;;;;;;;;;;6180955;23;19927;-86
2023/07/30 03:31:01;;;;;;;;;;;;;;;;;;6181172;23;19919;-86
2023/07/30 03:33:27;;;;;;;;;;;;;;;;;;6204829;22;19930;-86
2023/07/30 03:35:53;;;;;;;;;;;;;;;;;;6206878;23;19920;-86
2023/07/30 03:38:20;;;;;;;;;;;;;;;;;;6179046;23;19919;-85
2023/07/30 03:40:46;;;;;;;;;;;;;;;;;;6181398;23;19923;-86
2023/07/30 03:43:12;;;;;;;;;;;;;;;;;;6179051;23;20071;-86
2023/07/30 03:45:38;;;;;;;;;;;;;;;;;;6207539;23;20513;-86
2023/07/30 03:48:04;;;;;;;;;;;;;;;;;;6206170;23;19924;-86
2023/07/30 03:50:29;;;;;;;;;;;;;;;;;;6205442;23;19919;-86
2023/07/30 03:52:57;;;;;;;;;;;;;;;;;;6182436;23;19923;-86
2023/07/30 03:55:23;;;;;;;;;;;;;;;;;;6204511;23;19920;-86
2023/07/30 03:57:49;;;;;;;;;;;;;;;;;;6181125;23;19922;-86
2023/07/30 04:00:14;;;;;;;;;;;;;;;;;;6181184;23;19919;-86
2023/07/30 04:02:41;;;;;;;;;;;;;;;;;;6181457;23;19985;-86
2023/07/30 04:05:06;;;;;;;;;;;;;;;;;;6205937;23;19951;-86
2023/07/30 04:07:32;;;;;;;;;;;;;;;;;;6180031;23;19970;-86
2023/07/30 04:09:58;;;;;;;;;;;;;;;;;;6179389;23;19981;-86
2023/07/30 04:12:24;;;;;;;;;;;;;;;;;;6178087;23;19920;-86
2023/07/30 04:14:50;;;;;;;;;;;;;;;;;;6183354;23;19920;-86
2023/07/30 04:17:16;;;;;;;;;;;;;;;;;;6179611;23;19919;-86
2023/07/30 04:19:42;;;;;;;;;;;;;;;;;;6205910;23;19959;-86
2023/07/30 04:22:08;;;;;;;;;;;;;;;;;;6205362;23;19924;-86
2023/07/30 04:24:34;;;;;;;;;;;;;;;;;;6181753;23;19919;-86
2023/07/30 04:27:00;;;;;;;;;;;;;;;;;;6180563;23;20400;-87
2023/07/30 04:29:26;;;;;;;;;;;;;;;;;;6179273;23;19930;-87
2023/07/30 04:31:52;;;;;;;;;;;;;;;;;;6206891;23;19968;-86
2023/07/30 04:34:18;;;;;;;;;;;;;;;;;;6179315;23;19974;-86
2023/07/30 04:36:44;;;;;;;;;;;;;;;;;;6180472;23;19973;-86
2023/07/30 04:39:12;;;;;;;;;;;;;;;;;;6230710;23;20014;-86
2023/07/30 04:41:38;;;;;;;;;;;;;;;;;;6179866;23;20038;-87
2023/07/30 04:44:04;;;;;;;;;;;;;;;;;;6233804;23;19955;-87
2023/07/30 04:46:30;;;;;;;;;;;;;;;;;;6178166;23;19919;-86
2023/07/30 04:48:56;;;;;;;;;;;;;;;;;;6205724;23;20291;-86
2023/07/30 04:51:22;;;;;;;;;;;;;;;;;;6178428;23;19923;-87
2023/07/30 04:53:48;;;;;;;;;;;;;;;;;;6181321;23;20260;-86
2023/07/30 04:56:14;;;;;;;;;;;;;;;;;;6203739;23;19991;-86
2023/07/30 04:58:40;;;;;;;;;;;;;;;;;;6205915;23;19984;-86
2023/07/30 05:01:06;;;;;;;;;;;;;;;;;;6182075;23;20518;-86
2023/07/30 05:03:32;;;;;;;;;;;;;;;;;;6205033;23;19920;-87
2023/07/30 05:05:58;;;;;;;;;;;;;;;;;;6205499;23;19997;-86
2023/07/30 05:08:24;;;;;;;;;;;;;;;;;;6178931;23;19931;-87
2023/07/30 05:10:50;;;;;;;;;;;;;;;;;;6181612;23;19919;-87
2023/07/30 05:13:16;;;;;;;;;;;;;;;;;;6178253;23;19951;-87
2023/07/30 05:15:42;;;;;;;;;;;;;;;;;;6182281;23;19920;-86
2023/07/30 05:18:08;;;;;;;;;;;;;;;;;;6204127;23;19923;-86
2023/07/30 05:20:34;;;;;;;;;;;;;;;;;;6180531;23;19919;-86
2023/07/30 05:23:02;;;;;;;;;;;;;;;;;;6180879;23;20241;-87
2023/07/30 05:25:27;;;;;;;;;;;;;;;;;;6204674;23;19919;-86
2023/07/30 05:27:53;;;;;;;;;;;;;;;;;;6180482;23;19990;-86
2023/07/30 05:30:19;;;;;;;;;;;;;;;;;;6179703;23;19923;-86
2023/07/30 05:32:45;;;;;;;;;;;;;;;;;;6207145;23;20257;-86
2023/07/30 05:35:11;;;;;;;;;;;;;;;;;;6178860;23;19930;-86
2023/07/30 05:37:37;;;;;;;;;;;;;;;;;;6181080;23;20015;-86
2023/07/30 05:40:04;;;;;;;;;;;;;;;;;;6184922;23;19916;-87
2023/07/30 05:42:30;;;;;;;;;;;;;;;;;;6182256;23;19926;-86
2023/07/30 05:44:56;;;;;;;;;;;;;;;;;;6185157;23;20555;-87
2023/07/30 05:47:22;;;;;;;;;;;;;;;;;;6183198;23;19951;-86
2023/07/30 05:49:48;;;;;;;;;;;;;;;;;;6184836;23;19945;-86
2023/07/30 05:52:14;;;;;;;;;;;;;;;;;;6207432;23;19922;-87
2023/07/30 05:54:40;;;;;;;;;;;;;;;;;;6210181;23;19916;-87
2023/07/30 05:57:08;;;;;;;;;;;;;;;;;;6186180;23;19923;-86
2023/07/30 05:59:34;;;;;;;;;;;;;;;;;;6183525;23;19926;-86
2023/07/30 06:02:00;;;;;;;;;;;;;;;;;;6182816;23;19919;-86
2023/07/30 06:04:26;;;;;;;;;;;;;;;;;;6183901;23;19946;-86
2023/07/30 06:06:52;;;;;;;;;;;;;;;;;;6210137;23;20332;-87
2023/07/30 06:09:18;;;;;;;;;;;;;;;;;;6183157;23;19920;-86
2023/07/30 06:11:44;;;;;;;;;;;;;;;;;;6185125;23;19972;-87
2023/07/30 06:14:10;;;;;;;;;;;;;;;;;;6207956;23;19974;-87
2023/07/30 06:16:36;;;;;;;;;;;;;;;;;;6185606;23;19920;-86
2023/07/30 06:19:02;;;;;;;;;;;;;;;;;;6209242;23;19925;-86
2023/07/30 06:21:28;;;;;;;;;;;;;;;;;;6183645;23;20577;-87
2023/07/30 06:23:54;;;;;;;;;;;;;;;;;;6209706;23;19919;-86
2023/07/30 06:26:20;;;;;;;;;;;;;;;;;;6235482;23;19927;-86
2023/07/30 06:28:46;;;;;;;;;;;;;;;;;;6185635;23;19959;-87
2023/07/30 06:31:12;;;;;;;;;;;;;;;;;;6233305;23;19920;-86
2023/07/30 06:33:38;;;;;;;;;;;;;;;;;;6183872;22;20240;-86
2023/07/30 06:36:04;;;;;;;;;;;;;;;;;;6185197;23;20009;-86
2023/07/30 06:38:30;;;;;;;;;;;;;;;;;;6182909;23;19919;-86
2023/07/30 06:40:57;;;;;;;;;;;;;;;;;;6184271;23;19938;-86
2023/07/30 06:43:23;;;;;;;;;;;;;;;;;;6185021;23;19919;-86
2023/07/30 06:45:49;;;;;;;;;;;;;;;;;;6185011;23;19922;-86
2023/07/30 06:48:15;;;;;;;;;;;;;;;;;;6207381;23;20526;-86
2023/07/30 06:50:41;;;;;;;;;;;;;;;;;;6209969;23;20245;-87
2023/07/30 06:53:07;;;;;;;;;;;;;;;;;;6183924;23;19922;-87
2023/07/30 06:55:33;;;;;;;;;;;;;;;;;;6209986;23;19955;-86
2023/07/30 06:57:59;;;;;;;;;;;;;;;;;;6187748;23;19920;-86
2023/07/30 07:00:25;;;;;;;;;;;;;;;;;;6182813;23;19930;-87
2023/07/30 07:02:51;;;;;;;;;;;;;;;;;;6186610;23;19927;-86
2023/07/30 07:05:17;;;;;;;;;;;;;;;;;;6209664;23;20770;-87
2023/07/30 07:07:43;;;;;;;;;;;;;;;;;;6212510;23;20017;-86
2023/07/30 07:10:10;;;;;;;;;;;;;;;;;;6184967;23;20317;-87
2023/07/30 07:12:37;;;;;;;;;;;;;;;;;;6188793;23;19920;-86
2023/07/30 07:15:03;;;;;;;;;;;;;;;;;;6187897;23;19958;-86
2023/07/30 07:17:29;;;;;;;;;;;;;;;;;;6184632;23;20344;-87
2023/07/30 07:19:56;;;;;;;;;;;;;;;;;;6187204;23;19926;-87
2023/07/30 07:22:23;;;;;;;;;;;;;;;;;;6184511;23;19923;-88
2023/07/30 07:24:52;;;;;;;;;;;;;;;;;;6187827;23;19919;-87
2023/07/30 07:27:19;;;;;;;;;;;;;;;;;;6208923;23;20498;-88
2023/07/30 07:29:46;;;;;;;;;;;;;;;;;;6237096;23;19963;-87
2023/07/30 07:32:20;;;;;;;;;;;;;;;;;;6183908;23;19927;-88
2023/07/30 07:34:49;;;;;;;;;;;;;;;;;;6186238;23;20341;-89
2023/07/30 07:37:18;;;;;;;;;;;;;;;;;;6183070;23;19924;-88
2023/07/30 07:39:45;;;;;;;;;;;;;;;;;;6184763;23;19925;-87
2023/07/30 07:42:13;;;;;;;;;;;;;;;;;;6184490;23;19993;-87
2023/07/30 07:44:40;;;;;;;;;;;;;;;;;;6187498;23;19923;-88
2023/07/30 07:47:08;;;;;;;;;;;;;;;;;;6187119;23;19920;-88
2023/07/30 07:49:49;;;;;;;;;;;;;;;;;;6186642;23;19950;-88
2023/07/30 07:52:17;;;;;;;;;;;;;;;;;;6208160;23;19924;-87
2023/07/30 07:54:47;;;;;;;;;;;;;;;;;;6186128;23;20249;-87
2023/07/30 07:57:14;;;;;;;;;;;;;;;;;;6184386;23;19915;-87
2023/07/30 07:59:45;;;;;;;;;;;;;;;;;;6185627;23;19923;-88
2023/07/30 08:02:15;;;;;;;;;;;;;;;;;;6183918;23;19922;-88
2023/07/30 08:04:45;;;;;;;;;;;;;;;;;;6186368;23;19916;-87
2023/07/30 08:07:16;;;;;;;;;;;;;;;;;;6183702;23;20423;-88
2023/07/30 08:09:43;;;;;;;;;;;;;;;;;;6186152;23;19934;-88
2023/07/30 08:12:14;;;;;;;;;;;;;;;;;;6184431;23;19919;-87
2023/07/30 08:14:41;;;;;;;;;;;;;;;;;;6186696;23;19919;-87
2023/07/30 08:17:11;;;;;;;;;;;;;;;;;;6211085;23;19926;-88
2023/07/30 08:19:38;;;;;;;;;;;;;;;;;;6186064;23;20593;-87
2023/07/30 08:22:09;;;;;;;;;;;;;;;;;;6185951;23;19919;-88
2023/07/30 08:24:39;;;;;;;;;;;;;;;;;;6210647;23;20004;-88
2023/07/30 08:27:06;;;;;;;;;;;;;;;;;;6186217;23;20005;-88
2023/07/30 08:32:21;;;;;;;;;;;;;;;;;;6210258;23;19916;-88
2023/07/30 08:34:48;;;;;;;;;;;;;;;;;;6210978;23;20252;-88
2023/07/30 08:37:16;;;;;;;;;;;;;;;;;;6185519;23;20320;-88
2023/07/30 08:39:46;;;;;;;;;;;;;;;;;;6209405;23;19923;-87
2023/07/30 08:42:17;;;;;;;;;;;;;;;;;;6209649;23;20329;-88
2023/07/30 08:44:48;;;;;;;;;;;;;;;;;;6185965;23;19995;-88
2023/07/30 08:47:15;;;;;;;;;;;;;;;;;;6184498;23;19985;-88
2023/07/30 08:49:45;;;;;;;;;;;;;;;;;;6186427;23;20045;-88
2023/07/30 08:52:12;;;;;;;;;;;;;;;;;;6208827;23;20345;-88
2023/07/30 08:54:40;;;;;;;;;;;;;;;;;;6185953;23;19998;-88
2023/07/30 08:57:11;;;;;;;;;;;;;;;;;;6210939;23;20225;-88
2023/07/30 08:59:38;;;;;;;;;;;;;;;;;;6186057;23;19920;-88
2023/07/30 09:02:11;;;;;;;;;;;;;;;;;;6185389;23;20230;-88
2023/07/30 09:04:38;;;;;;;;;;;;;;;;;;6186327;23;19919;-87
2023/07/30 09:07:08;;;;;;;;;;;;;;;;;;6186218;23;19923;-87
2023/07/30 09:09:35;;;;;;;;;;;;;;;;;;6186346;23;19969;-87
2023/07/30 09:12:02;;;;;;;;;;;;;;;;;;6185749;23;20248;-87
2023/07/30 09:14:29;;;;;;;;;;;;;;;;;;6182797;23;20301;-88
2023/07/30 09:16:57;;;;;;;;;;;;;;;;;;6185546;23;19931;-88
2023/07/30 09:19:24;;;;;;;;;;;;;;;;;;6207180;23;19919;-87
2023/07/30 09:21:50;;;;;;;;;;;;;;;;;;6186679;23;19924;-87
2023/07/30 09:24:16;;;;;;;;;;;;;;;;;;6183331;23;19959;-87
2023/07/30 09:26:43;;;;;;;;;;;;;;;;;;6186006;23;20347;-88
2023/07/30 09:29:12;;;;;;;;;;;;;;;;;;6209448;23;20006;-87
2023/07/30 09:31:38;;;;;;;;;;;;;;;;;;6211862;23;19922;-87
2023/07/30 09:34:07;;;;;;;;;;;;;;;;;;6187127;23;19955;-87
2023/07/30 09:36:35;;;;;;;;;;;;;;;;;;6187377;23;20321;-87
2023/07/30 09:39:04;;;;;;;;;;;;;;;;;;6185689;23;19922;-88
2023/07/30 09:41:30;;;;;;;;;;;;;;;;;;6209705;23;19915;-88
2023/07/30 09:43:56;;;;;;;;;;;;;;;;;;6187079;23;19915;-87
2023/07/30 09:46:22;;;;;;;;;;;;;;;;;;6185381;23;19920;-87
2023/07/30 09:48:48;;;;;;;;;;;;;;;;;;6212043;23;19998;-87
2023/07/30 09:51:14;;;;;;;;;;;;;;;;;;6185989;23;20340;-87
2023/07/30 09:53:40;;;;;;;;;;;;;;;;;;6186535;23;19923;-87
2023/07/30 09:56:08;;;;;;;;;;;;;;;;;;6186809;23;19916;-86
2023/07/30 09:58:37;;;;;;;;;;;;;;;;;;6212680;23;19926;-86
2023/07/30 10:01:04;;;;;;;;;;;;;;;;;;6187756;23;19916;-87
2023/07/30 10:03:33;;;;;;;;;;;;;;;;;;6184579;23;20321;-88
2023/07/30 10:06:07;;;;;;;;;;;;;;;;;;6211846;23;19962;-88
2023/07/30 10:08:38;;;;;;;;;;;;;;;;;;6208698;23;20435;-88
2023/07/30 10:11:08;;;;;;;;;;;;;;;;;;6187010;23;19973;-88
2023/07/30 10:13:39;;;;;;;;;;;;;;;;;;6185241;23;20018;-88
2023/07/30 10:16:06;;;;;;;;;;;;;;;;;;6210892;23;19923;-88
2023/07/30 10:18:36;;;;;;;;;;;;;;;;;;6210115;23;19923;-88
2023/07/30 10:21:03;;;;;;;;;;;;;;;;;;6187728;23;19974;-88
2023/07/30 10:23:31;;;;;;;;;;;;;;;;;;6209613;23;19990;-88
2023/07/30 10:26:01;;;;;;;;;;;;;;;;;;6186692;23;19919;-88
2023/07/30 10:28:28;;;;;;;;;;;;;;;;;;6184584;23;19967;-88
2023/07/30 10:30:55;;;;;;;;;;;;;;;;;;6187277;23;19922;-89
2023/07/30 10:33:28;;;;;;;;;;;;;;;;;;6186238;23;19973;-89
2023/07/30 10:35:59;;;;;;;;;;;;;;;;;;6213646;23;19986;-89
2023/07/30 10:38:27;;;;;;;;;;;;;;;;;;6186473;23;19919;-89
2023/07/30 10:41:02;;;;;;;;;;;;;;;;;;6216398;23;19916;-89
2023/07/30 10:43:36;;;;;;;;;;;;;;;;;;6215030;23;19922;-88
2023/07/30 10:46:06;;;;;;;;;;;;;;;;;;6213107;23;19916;-88
2023/07/30 10:48:36;;;;;;;;;;;;;;;;;;6188676;23;19974;-88
2023/07/30 10:51:16;;;;;;;;;;;;;;;;;;;;;
2023/07/30 10:53:53;;;;;;;;;;;;;;;;;;;;;
2023/07/30 10:56:23;;;;;;;;;;;;;;;;;;6209121;23;19915;-88
2023/07/30 10:58:57;;;;;;;;;;;;;;;;;;6209333;23;19926;-87
2023/07/30 11:01:27;;;;;;;;;;;;;;;;;;6180899;23;19995;-88
2023/07/30 11:03:54;;;;;;;;;;;;;;;;;;6207234;23;19919;-87
2023/07/30 11:06:22;;;;;;;;;;;;;;;;;;6178609;23;20344;-87
2023/07/30 11:08:55;;;;;;;;;;;;;;;;;;6182068;23;19927;-89
2023/07/30 11:11:28;;;;;;;;;;;;;;;;;;6180095;23;19915;-88
2023/07/30 11:13:55;;;;;;;;;;;;;;;;;;6206811;23;19919;-88
2023/07/30 11:16:23;;;;;;;;;;;;;;;;;;6179061;23;19964;-87
2023/07/30 11:18:53;;;;;;;;;;;;;;;;;;6184605;23;20264;-87
2023/07/30 11:21:33;;;;;;;;;;;;;;;;;;;;;
2023/07/30 11:24:01;;;;;;;;;;;;;;;;;;6199824;23;19919;-88
2023/07/30 11:26:28;;;;;;;;;;;;;;;;;;6179574;23;19927;-88
2023/07/30 11:29:14;;;;;;;;;;;;;;;;;;;;;
2023/07/30 11:31:41;;;;;;;;;;;;;;;;;;6210176;23;19926;-88
2023/07/30 11:34:15;;;;;;;;;;;;;;;;;;6202391;23;19923;-87
2023/07/30 11:36:46;;;;;;;;;;;;;;;;;;6206750;23;20362;-87
2023/07/30 11:39:13;;;;;;;;;;;;;;;;;;6204324;23;20381;-88
2023/07/30 11:41:49;;;;;;;;;;;;;;;;;;6181629;23;19927;-88
2023/07/30 11:44:25;;;;;;;;;;;;;;;;;;6204482;23;19919;-88
2023/07/30 11:46:53;;;;;;;;;;;;;;;;;;6198447;23;19926;-89
2023/07/30 11:49:21;;;;;;;;;;;;;;;;;;6178956;23;19924;-87
2023/07/30 11:52:01;;;;;;;;;;;;;;;;;;6179769;23;19930;-88
2023/07/30 11:54:52;;;;;;;;;;;;;;;;;;6206766;23;20319;-88
2023/07/30 11:57:22;;;;;;;;;;;;;;;;;;6181211;23;19919;-88
2023/07/30 11:59:56;;;;;;;;;;;;;;;;;;6183000;23;20470;-87
2023/07/30 12:02:23;;;;;;;;;;;;;;;;;;6180891;23;19920;-88
2023/07/30 12:04:50;;;;;;;;;;;;;;;;;;6180783;23;19925;-87
2023/07/30 12:07:23;;;;;;;;;;;;;;;;;;6204115;23;19919;-87
2023/07/30 12:09:59;;;;;;;;;;;;;;;;;;6180195;23;19975;-88
2023/07/30 12:12:52;;;;;;;;;;;;;;;;;;;;;
2023/07/30 12:15:24;;;;;;;;;;;;;;;;;;6204033;23;19922;-88
2023/07/30 12:20:58;;;;;;;;;;;;;;;;;;6166732;23;20336;-87
2023/07/30 12:26:43;;;;;;;;;;;;;;;;;;6177967;23;20423;-87
2023/07/30 12:29:27;;;;;;;;;;;;;;;;;;6084832;23;20353;-88
2023/07/30 12:32:19;;;;;;;;;;;;;;;;;;;;;
2023/07/30 12:34:50;;;;;;;;;;;;;;;;;;6045564;23;19928;-89
2023/07/30 12:37:27;;;;;;;;;;;;;;;;;;;;;
2023/07/30 12:43:25;;;;;;;;;;;;;;;;;;;;;
2023/07/30 12:46:08;;;;;;;;;;;;;;;;;;5966724;24;19930;-90
2023/07/30 12:54:59;;;;;;;;;;;;;;;;;;;;;
2023/07/30 13:01:28;;;;;;;;;;;;;;;;;;5892105;24;19920;-88
2023/07/30 13:04:03;;;;;;;;;;;;;;;;;;5924376;23;20006;-87
2023/07/30 13:06:37;;;;;;;;;;;;;;;;;;6011272;23;20017;-87
2023/07/30 13:34:28;;;;;;;;;;;;;;;;;;;;;
2023/07/30 13:46:45;;;;;;;;;;;;;;;;;;;;;
2023/07/30 15:48:03;;;;;;;;;;;;;;;;;;6162137;22;19995;-87
2023/07/30 15:53:42;;;;;;;;;;;;;;;;;;6201371;23;20042;-87
2023/07/30 15:56:14;;;;;;;;;;;;;;;;;;6172208;23;19931;-88
2023/07/30 15:59:03;;;;;;;;;;;;;;;;;;6201147;23;19920;-88
2023/07/30 16:01:55;;;;;;;;;;;;;;;;;;6160102;23;19920;-88
2023/07/30 16:04:25;;;;;;;;;;;;;;;;;;6201108;23;19927;-88
2023/07/30 16:07:09;;;;;;;;;;;;;;;;;;6208167;23;19919;-89
2023/07/30 16:09:37;;;;;;;;;;;;;;;;;;6179226;23;19923;-88
2023/07/30 16:15:17;;;;;;;;;;;;;;;;;;6204906;23;19923;-88
2023/07/30 16:17:55;;;;;;;;;;;;;;;;;;6204887;23;19923;-88
2023/07/30 16:20:56;;;;;;;;;;;;;;;;;;6211480;23;20308;-88
2023/07/30 16:23:33;;;;;;;;;;;;;;;;;;6198892;23;19926;-88
2023/07/30 16:26:05;;;;;;;;;;;;;;;;;;6181715;23;19990;-88
2023/07/30 16:28:41;;;;;;;;;;;;;;;;;;6112888;23;19924;-88
2023/07/30 16:31:09;;;;;;;;;;;;;;;;;;6138802;23;19928;-88
2023/07/30 16:33:51;;;;;;;;;;;;;;;;;;6113766;23;20016;-88
2023/07/30 16:36:27;;;;;;;;;;;;;;;;;;6087953;23;19920;-89
2023/07/30 16:39:09;;;;;;;;;;;;;;;;;;6089960;23;19960;-88
2023/07/30 16:44:35;;;;;;;;;;;;;;;;;;6090626;23;19920;-88
2023/07/30 16:47:11;;;;;;;;;;;;;;;;;;;;;
2023/07/30 16:49:46;;;;;;;;;;;;;;;;;;6053670;23;19925;-87
2023/07/30 16:52:24;;;;;;;;;;;;;;;;;;6052572;23;19921;-87
2023/07/30 16:54:56;;;;;;;;;;;;;;;;;;6029845;23;19925;-87
2023/07/30 16:57:24;;;;;;;;;;;;;;;;;;6052888;23;19921;-86
2023/07/30 17:00:04;;;;;;;;;;;;;;;;;;6112618;23;19995;-87
2023/07/30 17:02:35;;;;;;;;;;;;;;;;;;6116306;23;19947;-87
2023/07/30 17:05:16;;;;;;;;;;;;;;;;;;6115607;23;19995;-87
2023/07/30 17:10:47;;;;;;;;;;;;;;;;;;;;;
2023/07/30 17:18:57;;;;;;;;;;;;;;;;;;6128826;23;20379;-87
2023/07/30 17:21:32;;;;;;;;;;;;;;;;;;6116024;23;20253;-88
2023/07/30 17:23:58;;;;;;;;;;;;;;;;;;6159285;23;20259;-87
2023/07/30 17:26:27;;;;;;;;;;;;;;;;;;6175399;23;19919;-88
2023/07/30 17:28:54;;;;;;;;;;;;;;;;;;6109613;23;19933;-88
2023/07/30 17:31:31;;;;;;;;;;;;;;;;;;6110723;23;20004;-88
2023/07/30 17:34:25;;;;;;;;;;;;;;;;;;;;;
2023/07/30 17:42:53;;;;;;;;;;;;;;;;;;6110405;23;19935;-87
2023/07/30 17:48:34;;;;;;;;;;;;;;;;;;;;;
2023/07/30 17:51:13;;;;;;;;;;;;;;;;;;6110536;23;20084;-87
2023/07/30 17:53:58;;;;;;;;;;;;;;;;;;;;;
2023/07/30 17:56:29;;;;;;;;;;;;;;;;;;6128222;23;19925;-88
2023/07/30 17:59:14;;;;;;;;;;;;;;;;;;;;;
2023/07/30 18:02:15;;;;;;;;;;;;;;;;;;6144686;23;20436;-88
2023/07/30 18:07:39;;;;;;;;;;;;;;;;;;6195467;23;19981;-87
2023/07/30 18:13:24;;;;;;;;;;;;;;;;;;6216639;23;19923;-88
2023/07/30 18:15:59;;;;;;;;;;;;;;;;;;6177943;23;19926;-87
2023/07/30 18:18:25;;;;;;;;;;;;;;;;;;6197439;23;19927;-88
2023/07/30 18:20:56;;;;;;;;;;;;;;;;;;6176186;23;19963;-87
2023/07/30 18:24:07;;;;;;;;;;;;;;;;;;6173870;23;19946;-88
2023/07/30 18:26:20;;;;;;;;;;;;;;;;;;6190644;23;19961;-87
2023/07/30 18:28:52;;;;;;;;;;;;;;;;;;6177960;23;20069;-88
2023/07/30 18:31:27;;;;;;;;;;;;;;;;;;6177515;23;20783;-87
2023/07/30 18:34:29;;;;;;;;;;;;;;;;;;6177458;23;20092;-87
2023/07/30 18:36:55;;;;;;;;;;;;;;;;;;6176335;23;20411;-88
2023/07/30 18:39:24;;;;;;;;;;;;;;;;;;6172322;23;19938;-87
2023/07/30 18:42:01;;;;;;;;;;;;;;;;;;;;;
2023/07/30 18:44:30;;;;;;;;;;;;;;;;;;6195000;23;19969;-88
2023/07/30 18:47:05;;;;;;;;;;;;;;;;;;6176138;23;19927;-87
2023/07/30 18:49:38;;;;;;;;;;;;;;;;;;6050515;23;2934015;-87
2023/07/30 18:52:08;;;;;;;;;;;;;;;;;;6177357;23;19927;-87
2023/07/30 18:57:44;;;;;;;;;;;;;;;;;;6172652;23;19931;-86
2023/07/30 19:03:20;;;;;;;;;;;;;;;;;;6204942;23;19920;-87
2023/07/30 19:06:00;;;;;;;;;;;;;;;;;;6182544;23;19969;-87
2023/07/30 19:08:43;;;;;;;;;;;;;;;;;;6173323;23;19924;-88
2023/07/30 19:11:17;;;;;;;;;;;;;;;;;;6178264;23;20351;-88
2023/07/30 19:13:46;;;;;;;;;;;;;;;;;;6178926;23;19923;-87
2023/07/30 19:19:04;;;;;;;;;;;;;;;;;;6203819;23;20019;-87
2023/07/30 19:21:39;;;;;;;;;;;;;;;;;;6175641;23;19923;-87
2023/07/30 19:24:31;;;;;;;;;;;;;;;;;;6204477;23;19920;-88
2023/07/30 19:27:08;;;;;;;;;;;;;;;;;;;;;
2023/07/30 19:32:25;;;;;;;;;;;;;;;;;;6203424;23;19946;-87
2023/07/30 19:35:01;;;;;;;;;;;;;;;;;;;;;
2023/07/30 19:40:48;;;;;;;;;;;;;;;;;;6202694;23;19977;-87
2023/07/30 19:43:20;;;;;;;;;;;;;;;;;;6177914;23;19978;-88
2023/07/30 19:45:51;;;;;;;;;;;;;;;;;;6178963;23;19920;-88
2023/07/30 19:48:35;;;;;;;;;;;;;;;;;;6175379;23;19981;-88
2023/07/30 19:54:11;;;;;;;;;;;;;;;;;;6188907;23;19919;-87
2023/07/30 19:56:58;;;;;;;;;;;;;;;;;;6177677;23;19919;-87
2023/07/30 19:59:40;;;;;;;;;;;;;;;;;;6229627;23;19923;-87
2023/07/30 20:02:11;;;;;;;;;;;;;;;;;;6177239;23;19920;-87
2023/07/30 20:04:43;;;;;;;;;;;;;;;;;;6177403;23;19946;-88
2023/07/30 20:07:18;;;;;;;;;;;;;;;;;;6177917;23;19920;-88
2023/07/30 20:10:15;;;;;;;;;;;;;;;;;;6240562;23;19933;-88
2023/07/30 20:12:40;;;;;;;;;;;;;;;;;;6203904;23;19955;-87
2023/07/30 20:15:09;;;;;;;;;;;;;;;;;;6181492;23;20388;-88
2023/07/30 20:20:24;;;;;;;;;;;;;;;;;;6188558;23;19954;-88
2023/07/30 20:23:02;;;;;;;;;;;;;;;;;;6178913;23;19919;-87
2023/07/30 20:25:34;;;;;;;;;;;;;;;;;;6177905;23;20184;-87
2023/07/30 20:28:20;;;;;;;;;;;;;;;;;;;;;
2023/07/30 20:30:55;;;;;;;;;;;;;;;;;;6204008;23;19919;-87
2023/07/30 20:33:26;;;;;;;;;;;;;;;;;;6203326;23;19924;-87
2023/07/30 20:36:04;;;;;;;;;;;;;;;;;;6204061;23;19928;-87
2023/07/30 20:38:39;;;;;;;;;;;;;;;;;;6178663;23;19926;-87
2023/07/30 20:41:05;;;;;;;;;;;;;;;;;;6178682;23;19958;-87
2023/07/30 20:43:33;;;;;;;;;;;;;;;;;;6175913;23;20321;-87
2023/07/30 20:45:59;;;;;;;;;;;;;;;;;;6178598;23;19919;-87
2023/07/30 20:48:39;;;;;;;;;;;;;;;;;;;;;
2023/07/30 20:51:08;;;;;;;;;;;;;;;;;;6203028;23;19924;-88
2023/07/30 20:53:41;;;;;;;;;;;;;;;;;;6180152;23;19951;-87
2023/07/30 20:56:10;;;;;;;;;;;;;;;;;;6175474;23;20017;-88
2023/07/30 20:58:44;;;;;;;;;;;;;;;;;;6178089;23;19966;-87
2023/07/30 21:01:11;;;;;;;;;;;;;;;;;;6175650;23;19966;-88
2023/07/30 21:03:37;;;;;;;;;;;;;;;;;;6203526;23;19919;-87
2023/07/30 21:06:12;;;;;;;;;;;;;;;;;;6180604;23;19919;-87
2023/07/30 21:08:40;;;;;;;;;;;;;;;;;;6179508;23;20251;-87